TAF AMD LDSB 271501Z 2715/2812 CNL=
TAF LDSB 271125Z 2712/2812 13010KT CAVOK
                 TX31/2712Z TN23/2803Z
           BECMG 2718/2720 05004KT
           BECMG 2809/2811 20007KT=
TAF LDSB 270602Z 2707/2806 13010KT CAVOK
                 TX31/2712Z TN23/2803Z
           BECMG 2718/2720 05004KT=